Terminal Aerodrome Forecast
Issued by NWS North Platte, NE

Home | Current Version | Previous Version | Graphics & Text | Print | Product List | Glossary On
Versions: 1 2 3 4 5 6 7 8 9 10 11 12 13 14 15 16 17 18 19 20
000
FTUS43 KLBF 171745 RRA
TAFVTN
TAF
KVTN 171745Z 1718/1818 18022G31KT P6SM FEW250
     FM172300 15018G27KT P6SM SCT130
     FM180400 15012KT P6SM VCTS BKN200CB WS020/16050KT
     FM180600 15010KT P6SM SHRA VCTS OVC090CB
     FM181200 15011KT P6SM OVC030=

USA.gov is the U.S. government's official web portal to all federal, state and local government web resources and services.